sensor_id;sensor_type;location;lat;lon;timestamp;P1;durP1;ratioP1;P2;durP2;ratioP2
26181;SDS011;13927;51.534;11.866;2023-11-19T00:00:34;2.60;;;2.05;;
26181;SDS011;13927;51.534;11.866;2023-11-19T00:03:00;2.78;;;1.70;;
26181;SDS011;13927;51.534;11.866;2023-11-19T00:05:26;3.45;;;1.90;;
26181;SDS011;13927;51.534;11.866;2023-11-19T00:07:55;2.97;;;1.67;;
26181;SDS011;13927;51.534;11.866;2023-11-19T00:10:20;3.30;;;1.73;;
26181;SDS011;13927;51.534;11.866;2023-11-19T00:12:47;3.33;;;1.83;;
26181;SDS011;13927;51.534;11.866;2023-11-19T00:15:14;3.40;;;2.08;;
26181;SDS011;13927;51.534;11.866;2023-11-19T00:17:44;3.35;;;1.65;;
26181;SDS011;13927;51.534;11.866;2023-11-19T00:20:11;4.18;;;2.35;;
26181;SDS011;13927;51.534;11.866;2023-11-19T00:22:38;2.78;;;1.75;;
26181;SDS011;13927;51.534;11.866;2023-11-19T00:25:04;5.18;;;2.03;;
26181;SDS011;13927;51.534;11.866;2023-11-19T00:27:31;3.40;;;2.00;;
26181;SDS011;13927;51.534;11.866;2023-11-19T00:29:57;2.78;;;1.90;;
26181;SDS011;13927;51.534;11.866;2023-11-19T00:32:23;2.75;;;1.98;;
26181;SDS011;13927;51.534;11.866;2023-11-19T00:34:49;3.22;;;2.08;;
26181;SDS011;13927;51.534;11.866;2023-11-19T00:37:15;3.47;;;1.77;;
26181;SDS011;13927;51.534;11.866;2023-11-19T00:39:44;3.75;;;2.15;;
26181;SDS011;13927;51.534;11.866;2023-11-19T00:42:11;3.83;;;2.08;;
26181;SDS011;13927;51.534;11.866;2023-11-19T00:44:36;3.92;;;2.40;;
26181;SDS011;13927;51.534;11.866;2023-11-19T00:47:02;6.32;;;2.08;;
26181;SDS011;13927;51.534;11.866;2023-11-19T00:49:28;4.72;;;2.72;;
26181;SDS011;13927;51.534;11.866;2023-11-19T00:51:54;4.63;;;2.58;;
26181;SDS011;13927;51.534;11.866;2023-11-19T00:54:19;4.68;;;3.13;;
26181;SDS011;13927;51.534;11.866;2023-11-19T00:56:45;5.95;;;3.17;;
26181;SDS011;13927;51.534;11.866;2023-11-19T00:59:11;6.15;;;3.40;;
26181;SDS011;13927;51.534;11.866;2023-11-19T01:01:37;6.63;;;3.70;;
26181;SDS011;13927;51.534;11.866;2023-11-19T01:04:03;5.20;;;3.10;;
26181;SDS011;13927;51.534;11.866;2023-11-19T01:06:29;3.38;;;2.42;;
26181;SDS011;13927;51.534;11.866;2023-11-19T01:08:56;3.97;;;2.45;;
26181;SDS011;13927;51.534;11.866;2023-11-19T01:11:22;4.15;;;2.58;;
26181;SDS011;13927;51.534;11.866;2023-11-19T01:13:48;3.47;;;2.35;;
26181;SDS011;13927;51.534;11.866;2023-11-19T01:16:15;3.45;;;2.25;;
26181;SDS011;13927;51.534;11.866;2023-11-19T01:18:41;4.38;;;2.33;;
26181;SDS011;13927;51.534;11.866;2023-11-19T01:21:07;4.05;;;2.60;;
26181;SDS011;13927;51.534;11.866;2023-11-19T01:23:33;3.97;;;2.22;;
26181;SDS011;13927;51.534;11.866;2023-11-19T01:26:00;3.58;;;2.47;;
26181;SDS011;13927;51.534;11.866;2023-11-19T01:28:25;6.13;;;2.92;;
26181;SDS011;13927;51.534;11.866;2023-11-19T01:30:51;5.50;;;2.90;;
26181;SDS011;13927;51.534;11.866;2023-11-19T01:33:17;4.15;;;2.45;;
26181;SDS011;13927;51.534;11.866;2023-11-19T01:35:43;3.65;;;2.25;;
26181;SDS011;13927;51.534;11.866;2023-11-19T01:38:09;4.25;;;2.38;;
26181;SDS011;13927;51.534;11.866;2023-11-19T01:40:35;3.85;;;2.28;;
26181;SDS011;13927;51.534;11.866;2023-11-19T01:43:02;3.50;;;2.45;;
26181;SDS011;13927;51.534;11.866;2023-11-19T01:45:29;3.90;;;2.35;;
26181;SDS011;13927;51.534;11.866;2023-11-19T01:47:56;4.53;;;2.40;;
26181;SDS011;13927;51.534;11.866;2023-11-19T01:50:23;5.68;;;2.65;;
26181;SDS011;13927;51.534;11.866;2023-11-19T01:52:52;4.07;;;2.50;;
26181;SDS011;13927;51.534;11.866;2023-11-19T01:55:19;3.88;;;2.38;;
26181;SDS011;13927;51.534;11.866;2023-11-19T01:57:46;5.95;;;3.00;;
26181;SDS011;13927;51.534;11.866;2023-11-19T02:00:14;3.47;;;2.33;;
26181;SDS011;13927;51.534;11.866;2023-11-19T02:02:41;3.75;;;2.60;;
26181;SDS011;13927;51.534;11.866;2023-11-19T02:05:08;6.10;;;2.75;;
26181;SDS011;13927;51.534;11.866;2023-11-19T02:07:36;4.15;;;2.50;;
26181;SDS011;13927;51.534;11.866;2023-11-19T02:10:01;3.28;;;2.33;;
26181;SDS011;13927;51.534;11.866;2023-11-19T02:12:30;4.10;;;2.63;;
26181;SDS011;13927;51.534;11.866;2023-11-19T02:15:00;3.00;;;1.83;;
26181;SDS011;13927;51.534;11.866;2023-11-19T02:17:28;4.55;;;2.15;;
26181;SDS011;13927;51.534;11.866;2023-11-19T02:19:59;3.28;;;1.88;;
26181;SDS011;13927;51.534;11.866;2023-11-19T02:22:25;2.63;;;1.60;;
26181;SDS011;13927;51.534;11.866;2023-11-19T02:24:51;2.53;;;1.73;;
26181;SDS011;13927;51.534;11.866;2023-11-19T02:30:13;3.20;;;2.10;;
26181;SDS011;13927;51.534;11.866;2023-11-19T02:32:40;3.50;;;2.25;;
26181;SDS011;13927;51.534;11.866;2023-11-19T02:35:07;5.10;;;2.40;;
26181;SDS011;13927;51.534;11.866;2023-11-19T02:37:34;4.25;;;2.58;;
26181;SDS011;13927;51.534;11.866;2023-11-19T02:40:00;7.40;;;2.75;;
26181;SDS011;13927;51.534;11.866;2023-11-19T02:42:28;5.40;;;2.80;;
26181;SDS011;13927;51.534;11.866;2023-11-19T02:44:54;4.53;;;2.75;;
26181;SDS011;13927;51.534;11.866;2023-11-19T02:47:20;4.18;;;2.00;;
26181;SDS011;13927;51.534;11.866;2023-11-19T02:49:46;3.15;;;1.92;;
26181;SDS011;13927;51.534;11.866;2023-11-19T02:52:12;3.78;;;2.30;;
26181;SDS011;13927;51.534;11.866;2023-11-19T02:54:39;3.80;;;2.25;;
26181;SDS011;13927;51.534;11.866;2023-11-19T02:57:06;4.03;;;2.17;;
26181;SDS011;13927;51.534;11.866;2023-11-19T02:59:35;3.50;;;2.53;;
26181;SDS011;13927;51.534;11.866;2023-11-19T03:02:06;3.42;;;2.00;;
26181;SDS011;13927;51.534;11.866;2023-11-19T03:04:36;4.85;;;2.08;;
26181;SDS011;13927;51.534;11.866;2023-11-19T03:07:05;3.05;;;1.73;;
26181;SDS011;13927;51.534;11.866;2023-11-19T03:09:32;2.00;;;1.02;;
26181;SDS011;13927;51.534;11.866;2023-11-19T03:11:59;1.58;;;0.68;;
26181;SDS011;13927;51.534;11.866;2023-11-19T03:14:26;2.30;;;0.73;;
26181;SDS011;13927;51.534;11.866;2023-11-19T03:16:52;3.25;;;0.80;;
26181;SDS011;13927;51.534;11.866;2023-11-19T03:19:18;1.40;;;0.93;;
26181;SDS011;13927;51.534;11.866;2023-11-19T03:21:44;1.70;;;0.80;;
26181;SDS011;13927;51.534;11.866;2023-11-19T03:24:12;1.30;;;0.77;;
26181;SDS011;13927;51.534;11.866;2023-11-19T03:26:38;1.33;;;0.80;;
26181;SDS011;13927;51.534;11.866;2023-11-19T03:29:04;2.42;;;0.80;;
26181;SDS011;13927;51.534;11.866;2023-11-19T03:31:30;1.05;;;0.65;;
26181;SDS011;13927;51.534;11.866;2023-11-19T03:33:56;0.80;;;0.70;;
26181;SDS011;13927;51.534;11.866;2023-11-19T03:36:21;0.63;;;0.50;;
26181;SDS011;13927;51.534;11.866;2023-11-19T03:38:47;0.85;;;0.68;;
26181;SDS011;13927;51.534;11.866;2023-11-19T03:41:13;1.20;;;0.73;;
26181;SDS011;13927;51.534;11.866;2023-11-19T03:43:40;0.50;;;0.40;;
26181;SDS011;13927;51.534;11.866;2023-11-19T03:46:18;3.40;;;0.70;;
26181;SDS011;13927;51.534;11.866;2023-11-19T03:48:48;1.77;;;0.60;;
26181;SDS011;13927;51.534;11.866;2023-11-19T03:51:15;0.82;;;0.52;;
26181;SDS011;13927;51.534;11.866;2023-11-19T03:53:42;1.02;;;0.50;;
26181;SDS011;13927;51.534;11.866;2023-11-19T03:56:09;0.80;;;0.50;;
26181;SDS011;13927;51.534;11.866;2023-11-19T03:58:36;1.70;;;0.60;;
26181;SDS011;13927;51.534;11.866;2023-11-19T04:01:04;1.33;;;0.63;;
26181;SDS011;13927;51.534;11.866;2023-11-19T04:03:36;0.50;;;0.40;;
26181;SDS011;13927;51.534;11.866;2023-11-19T04:06:02;1.80;;;0.60;;
26181;SDS011;13927;51.534;11.866;2023-11-19T04:08:29;0.93;;;0.40;;
26181;SDS011;13927;51.534;11.866;2023-11-19T04:10:54;2.20;;;0.50;;
26181;SDS011;13927;51.534;11.866;2023-11-19T04:13:20;1.00;;;0.45;;
26181;SDS011;13927;51.534;11.866;2023-11-19T04:15:47;0.70;;;0.38;;
26181;SDS011;13927;51.534;11.866;2023-11-19T04:18:15;0.82;;;0.40;;
26181;SDS011;13927;51.534;11.866;2023-11-19T04:20:41;1.55;;;0.40;;
26181;SDS011;13927;51.534;11.866;2023-11-19T04:23:07;0.43;;;0.30;;
26181;SDS011;13927;51.534;11.866;2023-11-19T04:25:34;0.68;;;0.40;;
26181;SDS011;13927;51.534;11.866;2023-11-19T04:28:01;0.60;;;0.30;;
26181;SDS011;13927;51.534;11.866;2023-11-19T04:30:27;0.63;;;0.40;;
26181;SDS011;13927;51.534;11.866;2023-11-19T04:32:53;0.70;;;0.40;;
26181;SDS011;13927;51.534;11.866;2023-11-19T04:35:19;0.40;;;0.30;;
26181;SDS011;13927;51.534;11.866;2023-11-19T04:37:44;0.38;;;0.20;;
26181;SDS011;13927;51.534;11.866;2023-11-19T04:40:10;0.45;;;0.28;;
26181;SDS011;13927;51.534;11.866;2023-11-19T04:42:37;0.50;;;0.40;;
26181;SDS011;13927;51.534;11.866;2023-11-19T04:45:05;0.68;;;0.47;;
26181;SDS011;13927;51.534;11.866;2023-11-19T04:47:32;0.65;;;0.45;;
26181;SDS011;13927;51.534;11.866;2023-11-19T04:49:59;0.77;;;0.60;;
26181;SDS011;13927;51.534;11.866;2023-11-19T04:52:25;0.30;;;0.30;;
26181;SDS011;13927;51.534;11.866;2023-11-19T04:54:51;1.02;;;0.30;;
26181;SDS011;13927;51.534;11.866;2023-11-19T04:57:17;1.10;;;0.40;;
26181;SDS011;13927;51.534;11.866;2023-11-19T04:59:42;2.78;;;1.00;;
26181;SDS011;13927;51.534;11.866;2023-11-19T05:02:08;2.20;;;0.80;;
26181;SDS011;13927;51.534;11.866;2023-11-19T05:04:34;0.85;;;0.43;;
26181;SDS011;13927;51.534;11.866;2023-11-19T05:07:00;0.30;;;0.30;;
26181;SDS011;13927;51.534;11.866;2023-11-19T05:09:26;0.20;;;0.20;;
26181;SDS011;13927;51.534;11.866;2023-11-19T05:11:52;0.43;;;0.40;;
26181;SDS011;13927;51.534;11.866;2023-11-19T05:14:18;0.32;;;0.30;;
26181;SDS011;13927;51.534;11.866;2023-11-19T05:16:45;0.90;;;0.60;;
26181;SDS011;13927;51.534;11.866;2023-11-19T05:19:11;0.57;;;0.40;;
26181;SDS011;13927;51.534;11.866;2023-11-19T05:21:37;0.25;;;0.25;;
26181;SDS011;13927;51.534;11.866;2023-11-19T05:24:03;0.50;;;0.43;;
26181;SDS011;13927;51.534;11.866;2023-11-19T05:26:29;0.60;;;0.40;;
26181;SDS011;13927;51.534;11.866;2023-11-19T05:28:55;0.30;;;0.20;;
26181;SDS011;13927;51.534;11.866;2023-11-19T05:31:21;0.57;;;0.30;;
26181;SDS011;13927;51.534;11.866;2023-11-19T05:33:47;0.50;;;0.30;;
26181;SDS011;13927;51.534;11.866;2023-11-19T05:36:13;0.40;;;0.30;;
26181;SDS011;13927;51.534;11.866;2023-11-19T05:38:38;0.25;;;0.25;;
26181;SDS011;13927;51.534;11.866;2023-11-19T05:41:05;0.22;;;0.22;;
26181;SDS011;13927;51.534;11.866;2023-11-19T05:43:31;0.30;;;0.28;;
26181;SDS011;13927;51.534;11.866;2023-11-19T05:45:57;0.30;;;0.25;;
26181;SDS011;13927;51.534;11.866;2023-11-19T05:48:24;0.75;;;0.30;;
26181;SDS011;13927;51.534;11.866;2023-11-19T05:50:51;0.17;;;0.17;;
26181;SDS011;13927;51.534;11.866;2023-11-19T05:53:17;0.82;;;0.20;;
26181;SDS011;13927;51.534;11.866;2023-11-19T05:55:43;1.13;;;0.30;;
26181;SDS011;13927;51.534;11.866;2023-11-19T05:58:14;0.93;;;0.20;;
26181;SDS011;13927;51.534;11.866;2023-11-19T06:00:40;0.20;;;0.20;;
26181;SDS011;13927;51.534;11.866;2023-11-19T06:03:07;0.50;;;0.38;;
26181;SDS011;13927;51.534;11.866;2023-11-19T06:05:34;0.80;;;0.40;;
26181;SDS011;13927;51.534;11.866;2023-11-19T06:07:59;0.65;;;0.30;;
26181;SDS011;13927;51.534;11.866;2023-11-19T06:10:25;1.05;;;0.50;;
26181;SDS011;13927;51.534;11.866;2023-11-19T06:12:56;0.32;;;0.30;;
26181;SDS011;13927;51.534;11.866;2023-11-19T06:15:24;0.40;;;0.30;;
26181;SDS011;13927;51.534;11.866;2023-11-19T06:17:53;0.38;;;0.38;;
26181;SDS011;13927;51.534;11.866;2023-11-19T06:20:20;0.70;;;0.30;;
26181;SDS011;13927;51.534;11.866;2023-11-19T06:22:46;3.03;;;0.77;;
26181;SDS011;13927;51.534;11.866;2023-11-19T06:25:12;0.52;;;0.35;;
26181;SDS011;13927;51.534;11.866;2023-11-19T06:27:40;1.23;;;0.30;;
26181;SDS011;13927;51.534;11.866;2023-11-19T06:30:07;0.75;;;0.40;;
26181;SDS011;13927;51.534;11.866;2023-11-19T06:32:33;0.63;;;0.40;;
26181;SDS011;13927;51.534;11.866;2023-11-19T06:34:59;0.80;;;0.45;;
26181;SDS011;13927;51.534;11.866;2023-11-19T06:37:25;1.83;;;0.80;;
26181;SDS011;13927;51.534;11.866;2023-11-19T06:39:52;1.25;;;0.60;;
26181;SDS011;13927;51.534;11.866;2023-11-19T06:42:18;0.85;;;0.35;;
26181;SDS011;13927;51.534;11.866;2023-11-19T06:44:43;1.27;;;0.70;;
26181;SDS011;13927;51.534;11.866;2023-11-19T06:47:09;0.22;;;0.20;;
26181;SDS011;13927;51.534;11.866;2023-11-19T06:49:35;1.17;;;0.70;;
26181;SDS011;13927;51.534;11.866;2023-11-19T06:52:01;0.65;;;0.45;;
26181;SDS011;13927;51.534;11.866;2023-11-19T06:54:26;0.77;;;0.30;;
26181;SDS011;13927;51.534;11.866;2023-11-19T06:56:52;0.63;;;0.40;;
26181;SDS011;13927;51.534;11.866;2023-11-19T06:59:18;0.95;;;0.45;;
26181;SDS011;13927;51.534;11.866;2023-11-19T07:01:44;0.80;;;0.60;;
26181;SDS011;13927;51.534;11.866;2023-11-19T07:04:12;0.90;;;0.30;;
26181;SDS011;13927;51.534;11.866;2023-11-19T07:06:38;1.08;;;0.60;;
26181;SDS011;13927;51.534;11.866;2023-11-19T07:09:08;0.63;;;0.40;;
26181;SDS011;13927;51.534;11.866;2023-11-19T07:11:43;1.17;;;0.70;;
26181;SDS011;13927;51.534;11.866;2023-11-19T07:14:10;0.80;;;0.70;;
26181;SDS011;13927;51.534;11.866;2023-11-19T07:16:36;1.05;;;0.50;;
26181;SDS011;13927;51.534;11.866;2023-11-19T07:19:04;0.50;;;0.43;;
26181;SDS011;13927;51.534;11.866;2023-11-19T07:21:30;0.80;;;0.32;;
26181;SDS011;13927;51.534;11.866;2023-11-19T07:23:58;0.43;;;0.30;;
26181;SDS011;13927;51.534;11.866;2023-11-19T07:26:24;0.70;;;0.45;;
26181;SDS011;13927;51.534;11.866;2023-11-19T07:28:50;0.65;;;0.50;;
26181;SDS011;13927;51.534;11.866;2023-11-19T07:31:17;0.35;;;0.35;;
26181;SDS011;13927;51.534;11.866;2023-11-19T07:33:44;1.70;;;0.70;;
26181;SDS011;13927;51.534;11.866;2023-11-19T07:36:12;0.75;;;0.47;;
26181;SDS011;13927;51.534;11.866;2023-11-19T07:38:38;0.88;;;0.60;;
26181;SDS011;13927;51.534;11.866;2023-11-19T07:41:07;0.60;;;0.50;;
26181;SDS011;13927;51.534;11.866;2023-11-19T07:43:38;0.57;;;0.40;;
26181;SDS011;13927;51.534;11.866;2023-11-19T07:46:10;0.30;;;0.30;;
26181;SDS011;13927;51.534;11.866;2023-11-19T07:48:38;0.80;;;0.50;;
26181;SDS011;13927;51.534;11.866;2023-11-19T07:51:04;0.88;;;0.50;;
26181;SDS011;13927;51.534;11.866;2023-11-19T07:53:30;0.22;;;0.22;;
26181;SDS011;13927;51.534;11.866;2023-11-19T07:55:57;0.40;;;0.30;;
26181;SDS011;13927;51.534;11.866;2023-11-19T07:58:25;0.52;;;0.40;;
26181;SDS011;13927;51.534;11.866;2023-11-19T08:00:51;0.50;;;0.40;;
26181;SDS011;13927;51.534;11.866;2023-11-19T08:03:17;0.57;;;0.40;;
26181;SDS011;13927;51.534;11.866;2023-11-19T08:05:54;0.70;;;0.40;;
26181;SDS011;13927;51.534;11.866;2023-11-19T08:08:22;0.77;;;0.43;;
26181;SDS011;13927;51.534;11.866;2023-11-19T08:10:48;0.50;;;0.50;;
26181;SDS011;13927;51.534;11.866;2023-11-19T08:13:20;1.15;;;0.47;;
26181;SDS011;13927;51.534;11.866;2023-11-19T08:15:49;1.70;;;0.50;;
26181;SDS011;13927;51.534;11.866;2023-11-19T08:18:15;1.67;;;0.80;;
26181;SDS011;13927;51.534;11.866;2023-11-19T08:20:43;2.20;;;1.08;;
26181;SDS011;13927;51.534;11.866;2023-11-19T08:23:10;1.23;;;0.70;;
26181;SDS011;13927;51.534;11.866;2023-11-19T08:25:36;1.35;;;0.80;;
26181;SDS011;13927;51.534;11.866;2023-11-19T08:28:02;0.93;;;0.70;;
26181;SDS011;13927;51.534;11.866;2023-11-19T08:30:29;0.98;;;0.50;;
26181;SDS011;13927;51.534;11.866;2023-11-19T08:32:56;1.02;;;0.50;;
26181;SDS011;13927;51.534;11.866;2023-11-19T08:35:27;0.75;;;0.50;;
26181;SDS011;13927;51.534;11.866;2023-11-19T08:37:56;1.02;;;0.70;;
26181;SDS011;13927;51.534;11.866;2023-11-19T08:40:26;2.35;;;1.40;;
26181;SDS011;13927;51.534;11.866;2023-11-19T08:43:02;4.47;;;1.50;;
26181;SDS011;13927;51.534;11.866;2023-11-19T08:45:33;1.55;;;0.70;;
26181;SDS011;13927;51.534;11.866;2023-11-19T08:48:04;1.35;;;0.85;;
26181;SDS011;13927;51.534;11.866;2023-11-19T08:50:34;0.98;;;0.57;;
26181;SDS011;13927;51.534;11.866;2023-11-19T08:53:01;2.60;;;0.98;;
26181;SDS011;13927;51.534;11.866;2023-11-19T08:55:31;1.27;;;0.85;;
26181;SDS011;13927;51.534;11.866;2023-11-19T08:57:57;2.22;;;0.77;;
26181;SDS011;13927;51.534;11.866;2023-11-19T09:00:23;3.10;;;1.10;;
26181;SDS011;13927;51.534;11.866;2023-11-19T09:02:49;3.75;;;1.75;;
26181;SDS011;13927;51.534;11.866;2023-11-19T09:05:15;2.67;;;1.35;;
26181;SDS011;13927;51.534;11.866;2023-11-19T09:07:42;2.03;;;1.10;;
26181;SDS011;13927;51.534;11.866;2023-11-19T09:10:09;2.10;;;0.93;;
26181;SDS011;13927;51.534;11.866;2023-11-19T09:12:39;4.20;;;1.13;;
26181;SDS011;13927;51.534;11.866;2023-11-19T09:15:09;2.03;;;0.80;;
26181;SDS011;13927;51.534;11.866;2023-11-19T09:17:38;1.90;;;1.00;;
26181;SDS011;13927;51.534;11.866;2023-11-19T09:20:04;1.50;;;0.90;;
26181;SDS011;13927;51.534;11.866;2023-11-19T09:22:31;2.30;;;0.45;;
26181;SDS011;13927;51.534;11.866;2023-11-19T09:24:57;2.47;;;0.60;;
26181;SDS011;13927;51.534;11.866;2023-11-19T09:27:25;1.58;;;0.50;;
26181;SDS011;13927;51.534;11.866;2023-11-19T09:29:51;0.98;;;0.55;;
26181;SDS011;13927;51.534;11.866;2023-11-19T09:32:22;2.47;;;0.80;;
26181;SDS011;13927;51.534;11.866;2023-11-19T09:34:48;2.33;;;0.70;;
26181;SDS011;13927;51.534;11.866;2023-11-19T09:37:14;1.65;;;0.70;;
26181;SDS011;13927;51.534;11.866;2023-11-19T09:39:40;1.65;;;0.73;;
26181;SDS011;13927;51.534;11.866;2023-11-19T09:42:08;1.85;;;1.60;;
26181;SDS011;13927;51.534;11.866;2023-11-19T09:44:35;1.02;;;0.50;;
26181;SDS011;13927;51.534;11.866;2023-11-19T09:47:04;1.15;;;0.68;;
26181;SDS011;13927;51.534;11.866;2023-11-19T09:49:32;0.68;;;0.52;;
26181;SDS011;13927;51.534;11.866;2023-11-19T09:52:00;1.40;;;0.68;;
26181;SDS011;13927;51.534;11.866;2023-11-19T09:54:28;1.60;;;0.55;;
26181;SDS011;13927;51.534;11.866;2023-11-19T09:56:54;0.80;;;0.52;;
26181;SDS011;13927;51.534;11.866;2023-11-19T09:59:27;2.47;;;0.80;;
26181;SDS011;13927;51.534;11.866;2023-11-19T10:01:55;1.92;;;0.90;;
26181;SDS011;13927;51.534;11.866;2023-11-19T10:04:22;1.95;;;0.63;;
26181;SDS011;13927;51.534;11.866;2023-11-19T10:06:48;3.63;;;0.90;;
26181;SDS011;13927;51.534;11.866;2023-11-19T10:09:16;2.92;;;1.20;;
26181;SDS011;13927;51.534;11.866;2023-11-19T10:11:49;3.85;;;0.90;;
26181;SDS011;13927;51.534;11.866;2023-11-19T10:14:15;2.83;;;1.08;;
26181;SDS011;13927;51.534;11.866;2023-11-19T10:16:44;1.63;;;0.88;;
26181;SDS011;13927;51.534;11.866;2023-11-19T10:19:12;1.85;;;0.90;;
26181;SDS011;13927;51.534;11.866;2023-11-19T10:21:45;2.63;;;1.25;;
26181;SDS011;13927;51.534;11.866;2023-11-19T10:24:12;2.53;;;1.38;;
26181;SDS011;13927;51.534;11.866;2023-11-19T10:26:37;5.90;;;2.03;;
26181;SDS011;13927;51.534;11.866;2023-11-19T10:29:03;3.05;;;1.48;;
26181;SDS011;13927;51.534;11.866;2023-11-19T10:31:30;5.10;;;1.40;;
26181;SDS011;13927;51.534;11.866;2023-11-19T10:33:55;2.05;;;1.23;;
26181;SDS011;13927;51.534;11.866;2023-11-19T10:36:22;2.08;;;1.10;;
26181;SDS011;13927;51.534;11.866;2023-11-19T10:38:54;2.72;;;1.40;;
26181;SDS011;13927;51.534;11.866;2023-11-19T10:43:57;2.22;;;1.13;;
26181;SDS011;13927;51.534;11.866;2023-11-19T10:46:40;2.90;;;1.10;;
26181;SDS011;13927;51.534;11.866;2023-11-19T10:49:26;0.93;;;0.80;;
26181;SDS011;13927;51.534;11.866;2023-11-19T10:51:57;2.03;;;1.17;;
26181;SDS011;13927;51.534;11.866;2023-11-19T10:54:27;2.65;;;1.10;;
26181;SDS011;13927;51.534;11.866;2023-11-19T10:57:05;2.53;;;1.50;;
26181;SDS011;13927;51.534;11.866;2023-11-19T10:59:48;4.78;;;1.75;;
26181;SDS011;13927;51.534;11.866;2023-11-19T11:02:25;5.10;;;1.33;;
26181;SDS011;13927;51.534;11.866;2023-11-19T11:04:56;6.90;;;1.52;;
26181;SDS011;13927;51.534;11.866;2023-11-19T11:07:28;5.07;;;1.73;;
26181;SDS011;13927;51.534;11.866;2023-11-19T11:09:57;8.77;;;1.45;;
26181;SDS011;13927;51.534;11.866;2023-11-19T11:12:25;10.80;;;2.55;;
26181;SDS011;13927;51.534;11.866;2023-11-19T11:14:52;8.82;;;2.22;;
26181;SDS011;13927;51.534;11.866;2023-11-19T11:17:24;9.52;;;2.25;;
26181;SDS011;13927;51.534;11.866;2023-11-19T11:20:13;5.85;;;1.67;;
26181;SDS011;13927;51.534;11.866;2023-11-19T11:23:05;7.28;;;1.55;;
26181;SDS011;13927;51.534;11.866;2023-11-19T11:33:06;6.47;;;1.60;;
26181;SDS011;13927;51.534;11.866;2023-11-19T11:38:44;8.57;;;2.45;;
26181;SDS011;13927;51.534;11.866;2023-11-19T11:41:21;6.22;;;1.45;;
26181;SDS011;13927;51.534;11.866;2023-11-19T11:44:05;8.23;;;1.90;;
26181;SDS011;13927;51.534;11.866;2023-11-19T11:49:25;4.03;;;2.10;;
26181;SDS011;13927;51.534;11.866;2023-11-19T11:51:59;6.32;;;1.98;;
26181;SDS011;13927;51.534;11.866;2023-11-19T11:54:42;8.95;;;1.95;;
26181;SDS011;13927;51.534;11.866;2023-11-19T11:57:11;9.35;;;1.42;;
26181;SDS011;13927;51.534;11.866;2023-11-19T12:02:20;7.63;;;2.10;;
26181;SDS011;13927;51.534;11.866;2023-11-19T12:04:48;6.38;;;1.80;;
26181;SDS011;13927;51.534;11.866;2023-11-19T12:07:18;5.70;;;2.20;;
26181;SDS011;13927;51.534;11.866;2023-11-19T12:09:55;12.35;;;2.33;;
26181;SDS011;13927;51.534;11.866;2023-11-19T12:12:42;4.38;;;1.63;;
26181;SDS011;13927;51.534;11.866;2023-11-19T12:15:27;12.00;;;2.40;;
26181;SDS011;13927;51.534;11.866;2023-11-19T12:17:59;7.97;;;1.45;;
26181;SDS011;13927;51.534;11.866;2023-11-19T12:20:26;9.25;;;2.63;;
26181;SDS011;13927;51.534;11.866;2023-11-19T12:22:52;7.68;;;2.10;;
26181;SDS011;13927;51.534;11.866;2023-11-19T12:25:19;11.00;;;2.08;;
26181;SDS011;13927;51.534;11.866;2023-11-19T12:27:47;6.43;;;1.60;;
26181;SDS011;13927;51.534;11.866;2023-11-19T12:30:33;10.55;;;1.88;;
26181;SDS011;13927;51.534;11.866;2023-11-19T12:33:07;6.63;;;1.85;;
26181;SDS011;13927;51.534;11.866;2023-11-19T12:35:40;10.50;;;1.50;;
26181;SDS011;13927;51.534;11.866;2023-11-19T12:38:07;8.50;;;2.28;;
26181;SDS011;13927;51.534;11.866;2023-11-19T12:41:08;7.78;;;1.80;;
26181;SDS011;13927;51.534;11.866;2023-11-19T12:44:12;5.65;;;1.65;;
26181;SDS011;13927;51.534;11.866;2023-11-19T12:47:06;6.88;;;1.75;;
26181;SDS011;13927;51.534;11.866;2023-11-19T12:49:38;7.53;;;1.90;;
26181;SDS011;13927;51.534;11.866;2023-11-19T12:52:12;11.95;;;2.50;;
26181;SDS011;13927;51.534;11.866;2023-11-19T12:54:53;8.48;;;2.40;;
26181;SDS011;13927;51.534;11.866;2023-11-19T12:57:37;8.45;;;1.80;;
26181;SDS011;13927;51.534;11.866;2023-11-19T13:00:30;10.18;;;1.85;;
26181;SDS011;13927;51.534;11.866;2023-11-19T13:03:03;7.45;;;1.83;;
26181;SDS011;13927;51.534;11.866;2023-11-19T13:05:35;6.85;;;1.95;;
26181;SDS011;13927;51.534;11.866;2023-11-19T13:08:08;8.50;;;2.53;;
26181;SDS011;13927;51.534;11.866;2023-11-19T13:10:52;7.75;;;2.08;;
26181;SDS011;13927;51.534;11.866;2023-11-19T13:13:23;14.32;;;2.15;;
26181;SDS011;13927;51.534;11.866;2023-11-19T13:15:52;9.90;;;1.80;;
26181;SDS011;13927;51.534;11.866;2023-11-19T13:18:44;7.82;;;1.80;;
26181;SDS011;13927;51.534;11.866;2023-11-19T13:21:14;5.90;;;1.40;;
26181;SDS011;13927;51.534;11.866;2023-11-19T13:23:47;10.75;;;2.22;;
26181;SDS011;13927;51.534;11.866;2023-11-19T13:26:17;10.10;;;2.20;;
26181;SDS011;13927;51.534;11.866;2023-11-19T13:28:48;8.57;;;1.92;;
26181;SDS011;13927;51.534;11.866;2023-11-19T13:31:23;10.43;;;2.03;;
26181;SDS011;13927;51.534;11.866;2023-11-19T13:33:55;7.72;;;1.90;;
26181;SDS011;13927;51.534;11.866;2023-11-19T13:36:24;8.57;;;1.60;;
26181;SDS011;13927;51.534;11.866;2023-11-19T13:39:00;6.38;;;1.88;;
26181;SDS011;13927;51.534;11.866;2023-11-19T13:41:32;6.15;;;1.55;;
26181;SDS011;13927;51.534;11.866;2023-11-19T13:44:02;6.93;;;1.70;;
26181;SDS011;13927;51.534;11.866;2023-11-19T13:46:30;11.98;;;1.80;;
26181;SDS011;13927;51.534;11.866;2023-11-19T13:48:59;7.25;;;1.67;;
26181;SDS011;13927;51.534;11.866;2023-11-19T13:51:28;11.40;;;2.35;;
26181;SDS011;13927;51.534;11.866;2023-11-19T13:53:54;8.88;;;2.10;;
26181;SDS011;13927;51.534;11.866;2023-11-19T13:56:20;7.43;;;1.80;;
26181;SDS011;13927;51.534;11.866;2023-11-19T13:58:46;9.30;;;2.15;;
26181;SDS011;13927;51.534;11.866;2023-11-19T14:01:12;7.05;;;2.13;;
26181;SDS011;13927;51.534;11.866;2023-11-19T14:03:38;9.85;;;1.73;;
26181;SDS011;13927;51.534;11.866;2023-11-19T14:06:04;7.32;;;1.85;;
26181;SDS011;13927;51.534;11.866;2023-11-19T14:08:31;10.65;;;1.90;;
26181;SDS011;13927;51.534;11.866;2023-11-19T14:10:57;6.45;;;1.90;;
26181;SDS011;13927;51.534;11.866;2023-11-19T14:13:23;11.70;;;2.05;;
26181;SDS011;13927;51.534;11.866;2023-11-19T14:15:49;8.05;;;2.20;;
26181;SDS011;13927;51.534;11.866;2023-11-19T14:18:15;7.45;;;1.60;;
26181;SDS011;13927;51.534;11.866;2023-11-19T14:20:42;11.48;;;2.08;;
26181;SDS011;13927;51.534;11.866;2023-11-19T14:23:09;8.52;;;2.53;;
26181;SDS011;13927;51.534;11.866;2023-11-19T14:25:34;10.75;;;1.73;;
26181;SDS011;13927;51.534;11.866;2023-11-19T14:28:00;8.48;;;1.63;;
26181;SDS011;13927;51.534;11.866;2023-11-19T14:30:26;9.05;;;1.65;;
26181;SDS011;13927;51.534;11.866;2023-11-19T14:32:52;5.40;;;1.75;;
26181;SDS011;13927;51.534;11.866;2023-11-19T14:35:19;5.70;;;2.45;;
26181;SDS011;13927;51.534;11.866;2023-11-19T14:37:45;8.68;;;1.60;;
26181;SDS011;13927;51.534;11.866;2023-11-19T14:40:11;6.43;;;1.27;;
26181;SDS011;13927;51.534;11.866;2023-11-19T14:42:37;9.40;;;1.83;;
26181;SDS011;13927;51.534;11.866;2023-11-19T14:45:04;9.30;;;1.85;;
26181;SDS011;13927;51.534;11.866;2023-11-19T14:47:31;4.75;;;1.33;;
26181;SDS011;13927;51.534;11.866;2023-11-19T14:49:56;10.23;;;1.77;;
26181;SDS011;13927;51.534;11.866;2023-11-19T14:52:22;5.95;;;1.77;;
26181;SDS011;13927;51.534;11.866;2023-11-19T14:54:48;8.35;;;1.52;;
26181;SDS011;13927;51.534;11.866;2023-11-19T14:57:16;6.05;;;1.67;;
26181;SDS011;13927;51.534;11.866;2023-11-19T14:59:42;8.70;;;1.88;;
26181;SDS011;13927;51.534;11.866;2023-11-19T15:02:08;9.02;;;1.70;;